Tiempo atmosférico en la estación meteorológica de Estepona, Málaga (15 m.)

Fecha
DESCASC
Temp. máxima en grados centígrados (hora)
DESCASC
Temp. mínima en grados centígrados (hora)
DESCASC
Temp. media en grados centígrados
DESCASC
Racha de viento máxima en m/sg (hora)
DESCASC
Velocidad máxima media en intervalos de 10 minutos(hora)
DESCASC
Precipitaciones diarias en mm
DESCASC
Precipitaciones de 00:00 a 06:00 en mm
DESCASC
Precipitaciones de 06:00 a 12:00 en mm
DESCASC
Precipitaciones de 12:00 a 18:00 en mm
DESCASC
Precipitaciones de 18:00 a 24:00 en mm
DESCASC
17-09-2017 25.5 (15:20) 14.2 (08:20) 19.8 3.33 (19:20) 2.22 (19:20) 0 0 0 0 0
16-09-2017 27.4 (16:10) 18.6 (23:59) 23 -- (--) -- (--) 0 0 0 0 0
15-09-2017 30.2 (15:20) 20.5 (23:59) 25.4 -- (--) -- (--) 0 0 0 0 0
14-09-2017 34.1 (16:30) 18.8 (00:00) 26.4 -- (--) -- (--) 0 0 0 0 0
13-09-2017 28.1 (15:30) 20.6 (00:00) 24.4 8.06 (10:10) 5.28 (10:20) 0 0 0 0 0
12-09-2017 35.1 (16:20) 17.3 (00:00) 26.2 6.39 (22:00) 3.06 (14:00) 0 0 0 0 0
11-09-2017 26.9 (13:30) 18.1 (00:00) 22.5 3.89 (03:20) 1.94 (03:40) 0 0 0 0 0
10-09-2017 32.5 (17:00) 17.7 (00:00) 25.1 9.72 (16:10) 5.83 (16:10) 0 0 0 0 0
09-09-2017 28.9 (13:50) 18.2 (00:00) 23.6 19.17 (18:30) 10 (18:30) 0 0 0 0 0
08-09-2017 28.9 (15:10) 20.6 (00:00) 24.8 5.28 (10:20) 3.33 (10:20) 0 0 0 0 0
07-09-2017 27.9 (15:40) 21 (00:00) 24.4 6.67 (14:40) 4.72 (15:40) 0 0 0 0 0
06-09-2017 29.1 (15:00) 21.2 (00:00) 25.2 5 (15:00) 3.33 (21:00) 0 0 0 0 0
05-09-2017 29.1 (15:20) 22.2 (00:00) 25.7 13.33 (11:20) 8.61 (11:30) 0 0 0 0 0
04-09-2017 33.9 (16:00) 21.2 (00:00) 27.6 15.56 (15:00) 8.06 (13:30) 0 0 0 0 0
03-09-2017 29.3 (15:10) 23 (00:00) 26.1 7.22 (00:30) 4.17 (09:50) 0 0 0 0 0
02-09-2017 27.8 (14:50) 23.8 (00:00) 25.8 12.22 (11:50) 8.06 (12:00) 0 0 0 0 0
01-09-2017 29.3 (14:40) 22.7 (00:00) 26 8.33 (13:30) 5.28 (14:10) 0 0 0 0 0
31-08-2017 29.9 (15:10) 19.6 (00:00) 24.8 5 (23:50) 2.5 (20:10) 0 0 0 0 0
30-08-2017 28.6 (15:30) 20.6 (00:00) 24.6 9.44 (16:50) 5.83 (16:50) 1.4 1.2 0.2 0 0
29-08-2017 28.7 (16:20) 19.3 (00:00) 24 7.78 (12:10) 5.56 (17:40) 0.4 0 0.4 0 0
28-08-2017 29.3 (18:00) 22.4 (00:00) 25.8 -- (--) -- (--) 3 1 0.6 1.4 0
27-08-2017 29.6 (16:10) 24.2 (00:00) 26.9 9.17 (16:20) 5.56 (14:20) 2.8 0 1.2 1.6 0
26-08-2017 29.2 (15:00) 22.7 (00:00) 26 8.89 (23:00) 5.28 (23:00) 0 0 0 0 0
25-08-2017 29.1 (14:50) 21.8 (00:00) 25.4 7.78 (13:00) 4.72 (13:00) 0 0 0 0 0
24-08-2017 29.1 (14:40) 21 (00:00) 25.1 6.39 (16:20) 4.17 (16:50) 0 0 0 0 0
23-08-2017 30.4 (16:10) 20.3 (00:00) 25.3 5.83 (14:20) 3.61 (14:20) 0 0 0 0 0
22-08-2017 -- (--) -- (--) -- -- (--) -- (--) -- 0 0 0 --

Gráficas

Temp. máximas Temp. mínimas Temp. medias Precipitaciones Rachas de viento máximas Velocidades máximas media en intervalos de 10 minutos

Datos horarios

Fecha y hora oficial Temperatura (ºC) Velocidad del viento (km/h) Dirección del viento Racha (km/h) Dirección de racha Precipitación (mm) Presión (hPa) Tendencia (hPa) Humedad (%)
2017-09-20 23:00:00 19.3 4 Nordeste 10 Nordeste 0 -- -- 82
2017-09-20 22:00:00 19.4 4 Nordeste 9 Este 0 -- -- 81
2017-09-20 21:00:00 20.3 5 Nordeste 11 Norte 0 -- -- 78
2017-09-20 20:00:00 21.7 4 Este 18 Sudeste 0 -- -- 70
2017-09-20 19:00:00 23.1 12 Este 22 Este 0 -- -- 68
2017-09-20 18:00:00 22.4 12 Este 22 Este 0 -- -- 70
2017-09-20 17:00:00 23.9 12 Este 22 Este 0 -- -- 63
2017-09-20 16:00:00 23.6 12 Este 31 Este 0 -- -- 64
2017-09-20 15:00:00 22.3 14 Este 25 Este 0 -- -- 67
2017-09-20 14:00:00 23.9 12 Este 22 Este 0 -- -- 52
2017-09-20 13:00:00 24.4 12 Este 18 Este 0 -- -- 46
2017-09-20 12:00:00 23.6 4 Este 8 Este 0 -- -- 55
2017-09-20 11:00:00 21.2 3 Sudoeste 5 Sudoeste 0 -- -- 61
2017-09-20 10:00:00 18.6 0 Calma 4 Oeste 0 -- -- 70
2017-09-20 09:00:00 16.2 2 Sudeste 4 Sudoeste 0 -- -- 78
2017-09-20 08:00:00 16 0 Calma 5 Oeste 0 -- -- 75
2017-09-20 07:00:00 16.9 2 Sudeste 6 Oeste 0 -- -- 72
2017-09-20 06:00:00 17 3 Oeste 5 Oeste 0 -- -- 73
2017-09-20 05:00:00 17.8 2 Sudeste 11 Este 0 -- -- 69
2017-09-20 04:00:00 18.4 6 Nordeste 14 Este 0 -- -- 64
2017-09-20 03:00:00 16.9 2 Norte 6 Nordeste 0 -- -- 74
2017-09-20 02:00:00 17.6 2 Noroeste 5 Noroeste 0 -- -- 74
2017-09-20 01:00:00 18.3 0 Calma 11 Nordeste 0 -- -- 71
2017-09-20 00:00:00 18.7 5 Nordeste 16 Este 0 -- -- 73
2017-09-19 23:00:00 18.6 5 Nordeste 10 Este 0 -- -- 78
2017-09-19 22:00:00 18.9 3 Este 11 Nordeste 0 -- -- 77
2017-09-19 21:00:00 19.6 5 Nordeste 15 Este 0 -- -- 75
2017-09-19 20:00:00 21.1 8 Nordeste 12 Este 0 -- -- 68
2017-09-19 19:00:00 23 8 Este 13 Este 0 -- -- 62
2017-09-19 18:00:00 24.4 6 Este 14 Este 0 -- -- 57
2017-09-19 17:00:00 26.2 8 Este 12 Este 0 -- -- 48
2017-09-19 16:00:00 25.9 5 Este 12 Este 0 -- -- 51
2017-09-19 15:00:00 27.3 4 Este 13 Este 0 -- -- 44
2017-09-19 14:00:00 27.4 3 Sudeste 11 Sudeste 0 -- -- 34
2017-09-19 13:00:00 25.9 5 Este 12 Este 0 -- -- 42
2017-09-19 12:00:00 26.4 4 Este 8 Este 0 -- -- 31
2017-09-19 11:00:00 21.5 2 Sur 6 Este 0 -- -- 52
2017-09-19 10:00:00 20 4 Este 8 Nordeste 0 -- -- 56
2017-09-19 09:00:00 16.6 2 Nordeste 6 Sudoeste 0 -- -- 72
2017-09-19 08:00:00 16 4 Norte 9 Nordeste 0 -- -- 70
2017-09-19 07:00:00 17 3 Sudoeste 7 Este 0 -- -- 66
2017-09-19 06:00:00 18.2 5 Nordeste 9 Este 0 -- -- 62
2017-09-19 05:00:00 19.6 6 Noroeste 10 Noroeste 0 -- -- 55
2017-09-19 04:00:00 18.7 4 Norte 9 Nordeste 0 -- -- 61
2017-09-19 03:00:00 19.1 3 Sudoeste 7 Nordeste 0 -- -- 60
2017-09-19 02:00:00 20.5 0 Calma 12 Oeste 0 -- -- 54
2017-09-19 01:00:00 22.9 3 Sudoeste 21 Oeste 0 -- -- 46
2017-09-19 00:00:00 24 10 Oeste 26 Oeste 0 -- -- 43
2017-09-18 23:00:00 22.6 13 Oeste 42 Oeste 0 -- -- 51
2017-09-18 22:00:00 22.3 21 Sudoeste 39 Oeste 0 -- -- 55
2017-09-18 21:00:00 24.2 16 Sudoeste -- -- 0 -- -- 42
2017-09-18 20:00:00 26.3 -- -- -- -- 0 -- -- 35
2017-09-18 19:00:00 29.2 -- -- -- -- 0 -- -- 26
2017-09-18 18:00:00 30.9 -- -- -- -- 0 -- -- 19
2017-09-18 17:00:00 30.7 26 Oeste -- -- 0 -- -- 18
2017-09-18 16:00:00 30.3 -- -- -- -- 0 -- -- 19
2017-09-18 15:00:00 30.3 -- -- -- -- 0 -- -- 18
2017-09-18 14:00:00 29.3 20 Sudoeste -- -- 0 -- -- 18
2017-09-18 13:00:00 29.2 -- -- -- -- 0 -- -- 14
2017-09-18 12:00:00 27.3 21 Oeste 44 Oeste 0 -- -- 18
2017-09-18 11:00:00 24.3 17 Oeste 37 Oeste 0 -- -- 29
2017-09-18 10:00:00 21.3 14 Oeste 27 Sudoeste 0 -- -- 33
2017-09-18 09:00:00 15.2 4 Este 10 Nordeste 0 -- -- 77
2017-09-18 08:00:00 14.7 0 Calma 5 Oeste 0 -- -- 76
2017-09-18 07:00:00 15 2 Oeste 5 Sudoeste 0 -- -- 73
2017-09-18 06:00:00 14.9 2 Nordeste 5 Sudoeste 0 -- -- 70
2017-09-18 05:00:00 15.3 0 Calma 6 Sudoeste 0 -- -- 72
2017-09-18 04:00:00 15.4 2 Norte 6 Sudoeste 0 -- -- 68
2017-09-18 03:00:00 16.2 2 Este 5 Este 0 -- -- 68
2017-09-18 02:00:00 16.5 2 Noroeste 5 Noroeste 0 -- -- 64
2017-09-18 01:00:00 17 2 Sudeste 9 Nordeste 0 -- -- 64
2017-09-18 00:00:00 17.4 3 Sur 6 Sudeste 0 -- -- 72
2017-09-17 23:00:00 17.9 2 Oeste 7 Este 0 -- -- 70
2017-09-17 22:00:00 19.1 3 Nordeste 9 Sudoeste 0 -- -- 68
2017-09-17 21:00:00 20.2 5 Sudoeste 9 Sudoeste 0 -- -- 65
2017-09-17 20:00:00 21.4 5 Nordeste 12 Este 0 -- -- 61
2017-09-17 19:00:00 23.9 6 Este 11 Este 0 -- -- 55
2017-09-17 18:00:00 24.8 3 Sudoeste 8 Sur 0 -- -- 48
2017-09-17 17:00:00 24.9 4 Sudoeste 10 Sur 0 -- -- 50
2017-09-17 16:00:00 24.8 5 Sur 10 Sur 0 -- -- 53
2017-09-17 15:00:00 24.9 4 Sur 9 Sudeste 0 -- -- 54
2017-09-17 14:00:00 24.9 4 Sudeste 9 Sudeste 0 -- -- 53
2017-09-17 13:00:00 24.2 4 Sudeste 9 Sudeste 0 -- -- 53
2017-09-17 12:00:00 23.4 4 Sudeste 8 Sudeste 0 -- -- 52
2017-09-17 11:00:00 21.9 4 Este 10 Este 0 -- -- 55
2017-09-17 10:00:00 18.9 3 Este 6 Sudoeste 0 -- -- 62
2017-09-17 09:00:00 15.6 2 Sudoeste 6 Nordeste 0 -- -- 72
2017-09-17 08:00:00 14.8 5 Nordeste 8 Este 0 -- -- 73
2017-09-17 07:00:00 14.8 3 Oeste 6 Sudoeste 0 -- -- 68
2017-09-17 06:00:00 15 2 Sudeste 6 Nordeste 0 -- -- 69
2017-09-17 05:00:00 15.1 5 Nordeste 9 Nordeste 0 -- -- 70
2017-09-17 04:00:00 15.9 3 Nordeste 6 Este 0 -- -- 71
2017-09-17 03:00:00 16.4 3 Este 4 Este 0 -- -- 68
2017-09-17 02:00:00 17.1 3 Oeste 6 Sur 0 -- -- 67
2017-09-17 01:00:00 17.6 2 Sur 6 Este 0 -- -- 63
2017-09-17 00:00:00 18.6 2 Sudoeste 10 Nordeste 0 -- -- 61
2017-09-16 23:00:00 19.2 3 Nordeste 12 Sudoeste 0 -- -- 54
2017-09-16 22:00:00 21.5 6 Sudoeste 23 Oeste 0 -- -- 46
2017-09-16 21:00:00 22.8 12 Oeste 33 Oeste 0 -- -- 41
2017-09-16 20:00:00 24.8 17 Oeste -- -- 0 -- -- 36
2017-09-16 19:00:00 26.5 -- -- -- -- 0 -- -- 32
2017-09-16 18:00:00 26.5 -- -- -- -- 0 -- -- 33
2017-09-16 17:00:00 26.4 -- -- -- -- 0 -- -- 34
2017-09-16 16:00:00 27.2 20 Sudoeste 39 Sudoeste 0 -- -- 30
2017-09-16 15:00:00 26.9 18 Sudoeste 36 Sudoeste 0 -- -- 31
2017-09-16 14:00:00 26.7 17 Oeste -- -- 0 -- -- 30
2017-09-16 13:00:00 25.2 -- -- -- -- 0 -- -- 35
2017-09-16 12:00:00 23.7 -- -- -- -- 0 -- -- 42
2017-09-16 11:00:00 21.6 18 Oeste 31 Sudoeste 0 -- -- 55
2017-09-16 10:00:00 20.5 15 Oeste 32 Oeste 0 -- -- 61
2017-09-16 09:00:00 19.4 13 Oeste 29 Oeste 0 -- -- 65
2017-09-16 08:00:00 18.9 17 Oeste 37 Oeste 0 -- -- 64
2017-09-16 07:00:00 19.1 16 Oeste -- -- 0 -- -- 61
2017-09-16 06:00:00 19.2 15 Oeste 32 Oeste 0 -- -- 63
2017-09-16 05:00:00 19.1 10 Oeste 23 Oeste 0 -- -- 66
2017-09-16 04:00:00 19.1 13 Sudoeste -- -- 0 -- -- 67
2017-09-16 03:00:00 19.7 -- -- -- -- 0 -- -- 64
2017-09-16 02:00:00 20.2 -- -- -- -- 0 -- -- 57
2017-09-16 01:00:00 20.3 22 Oeste 41 Sudoeste 0 -- -- 42
2017-09-16 00:00:00 20.5 23 Sudoeste -- -- 0 -- -- 42
2017-09-15 23:00:00 21 15 Oeste -- -- 0 -- -- 39
2017-09-15 22:00:00 21.8 -- -- -- -- 0 -- -- 36
2017-09-15 21:00:00 22.7 -- -- -- -- 0 -- -- 28
2017-09-15 20:00:00 25.1 -- -- -- -- 0 -- -- 18
2017-09-15 19:00:00 26.3 31 Sudoeste 60 Sudoeste 0 -- -- 18
2017-09-15 18:00:00 27.6 -- -- -- -- 0 -- -- 15
2017-09-15 17:00:00 28.7 32 Sudoeste -- -- 0 -- -- 15
2017-09-15 16:00:00 29.4 -- -- -- -- 0 -- -- 18
2017-09-15 15:00:00 29.7 -- -- -- -- 0 -- -- 12
2017-09-15 14:00:00 28.4 34 Sudoeste -- -- 0 -- -- 19
2017-09-15 13:00:00 27.9 27 Sudoeste 50 Oeste 0 -- -- 19
2017-09-15 12:00:00 25.7 23 Sudoeste 42 Sudoeste 0 -- -- 37
2017-09-15 11:00:00 24.9 26 Oeste 45 Oeste 0 -- -- 41
2017-09-15 10:00:00 22.9 26 Sudoeste 43 Sudoeste 0 -- -- 59
2017-09-15 09:00:00 22.1 21 Oeste 37 Oeste 0 -- -- 57
2017-09-15 08:00:00 22.4 20 Oeste 36 Oeste 0 -- -- 50
2017-09-15 07:00:00 22.2 16 Oeste 31 Sudoeste 0 -- -- 54
2017-09-15 06:00:00 22.7 13 Sudoeste 23 Oeste 0 -- -- 43
2017-09-15 05:00:00 22.3 6 Oeste 13 Oeste 0 -- -- 37
2017-09-15 04:00:00 21.8 3 Este 10 Oeste 0 -- -- 38
2017-09-15 03:00:00 24.3 5 Oeste 18 Oeste 0 -- -- 29
2017-09-15 02:00:00 22.9 4 Este 9 Nordeste 0 -- -- 47
2017-09-15 01:00:00 23.9 6 Nordeste 11 Este 0 -- -- 44
2017-09-15 00:00:00 26.5 4 Norte 34 Oeste 0 -- -- 33
2017-09-14 23:00:00 26.8 17 Oeste 34 Oeste 0 -- -- 29
2017-09-14 22:00:00 26.5 8 Sudoeste 24 Sudoeste 0 -- -- 39
2017-09-14 21:00:00 24.7 17 Sudoeste -- -- 0 -- -- 50
2017-09-14 20:00:00 26.2 12 Sudoeste -- -- 0 -- -- 46
2017-09-14 19:00:00 32 6 Oeste 40 Oeste 0 -- -- 26
2017-09-14 18:00:00 32.1 -- -- -- -- 0 -- -- 29
2017-09-14 17:00:00 32.9 -- -- -- -- 0 -- -- 17
2017-09-14 16:00:00 28 9 Este 28 Sudoeste 0 -- -- 45
2017-09-14 15:00:00 27.5 10 Este 18 Este 0 -- -- 53
2017-09-14 14:00:00 26.9 5 Este 11 Este 0 -- -- 59
2017-09-14 13:00:00 26.1 4 Sur 10 Sur 0 -- -- 62
2017-09-14 12:00:00 24.4 4 Sudoeste 10 Oeste 0 -- -- 62
2017-09-14 11:00:00 22.7 4 Sur 7 Sur 0 -- -- 71
2017-09-14 10:00:00 20.9 4 Este 9 Este 0 -- -- 82
2017-09-14 09:00:00 19.4 2 Sudeste 5 Este 0 -- -- 83
2017-09-14 08:00:00 18.9 2 Sudoeste 5 Sudoeste 0 -- -- 81
2017-09-14 07:00:00 19.9 0 Calma 11 Oeste 0 -- -- 79
2017-09-14 06:00:00 20.6 5 Oeste 8 Oeste 0 -- -- 82
2017-09-14 05:00:00 20.8 2 Este 8 Oeste 0 -- -- 82
2017-09-14 04:00:00 20.8 3 Oeste 7 Sudoeste 0 -- -- 82
2017-09-14 03:00:00 20.6 0 Calma 4 Noroeste 0 -- -- 81
2017-09-14 02:00:00 20.9 0 Calma 8 Nordeste 0 -- -- 80
2017-09-14 01:00:00 21.4 3 Nordeste 10 Este 0 -- -- 80
2017-09-14 00:00:00 21.8 5 Nordeste 15 Este 0 -- -- 80
2017-09-13 23:00:00 21.5 7 Nordeste 14 Este 0 -- -- 79
2017-09-13 22:00:00 21.9 8 Nordeste 15 Este 0 -- -- 78
2017-09-13 21:00:00 22.4 12 Este 18 Este 0 -- -- 75
2017-09-13 20:00:00 23.6 13 Este 21 Nordeste 0 -- -- 68
2017-09-13 19:00:00 25.5 13 Este 20 Este 0 -- -- 60
2017-09-13 18:00:00 26.4 13 Este 23 Este 0 -- -- 56
2017-09-13 17:00:00 27.4 14 Este 23 Este 0 -- -- 53
2017-09-13 16:00:00 28 14 Este 25 Este 0 -- -- 44
2017-09-13 15:00:00 27.5 13 Este 26 Este 0 -- -- 46
2017-09-13 14:00:00 27.5 14 Este 27 Este 0 -- -- 47
2017-09-13 13:00:00 26.7 17 Este 24 Este 0 -- -- 51
2017-09-13 12:00:00 25.1 17 Este 26 Este 0 -- -- 60
2017-09-13 11:00:00 24 13 Este 29 Este 0 -- -- 66
2017-09-13 10:00:00 23.7 17 Nordeste 28 Este 0 -- -- 67
2017-09-13 09:00:00 22.6 8 Nordeste 22 Nordeste 0 -- -- 71
2017-09-13 08:00:00 22.5 9 Nordeste 23 Este 0 -- -- 69
2017-09-13 07:00:00 22.4 7 Nordeste 25 Nordeste 0 -- -- 68
2017-09-13 06:00:00 22.7 8 Nordeste 26 Nordeste 0 -- -- 66
2017-09-13 05:00:00 22.5 10 Nordeste 21 Nordeste 0 -- -- 63
2017-09-13 04:00:00 22.4 10 Nordeste 24 Este 0 -- -- 68
2017-09-13 03:00:00 22.6 9 Nordeste 23 Este 0 -- -- 71
2017-09-13 02:00:00 22.3 10 Nordeste 24 Nordeste 0 -- -- 62
2017-09-13 01:00:00 20.7 9 Nordeste 21 Este 0 -- -- 74
2017-09-13 00:00:00 21.9 9 Este 17 Este 0 -- -- 70
2017-09-12 23:00:00 22.1 6 Nordeste 22 Nordeste 0 -- -- 68
2017-09-12 22:00:00 22.3 9 Nordeste 23 Este 0 -- -- 69
2017-09-12 21:00:00 23.6 7 Este 13 Este 0 -- -- 58
2017-09-12 20:00:00 27.4 8 Este 13 Nordeste 0 -- -- 42
2017-09-12 19:00:00 33 5 Sudoeste 14 Sudoeste 0 -- -- 20
2017-09-12 18:00:00 33.7 7 Sudoeste 16 Oeste 0 -- -- 22
2017-09-12 17:00:00 33.4 8 Sudoeste 14 Sudoeste 0 -- -- 20
2017-09-12 16:00:00 34.6 4 Sudoeste 14 Sudoeste 0 -- -- 15
2017-09-12 15:00:00 32.2 9 Sudoeste -- -- 0 -- -- 21
2017-09-12 14:00:00 30.1 11 Oeste -- -- 0 -- -- 27
2017-09-12 13:00:00 28.4 6 Sudoeste 13 Sudoeste 0 -- -- 32
2017-09-12 12:00:00 25.7 8 Sudoeste 11 Sudoeste 0 -- -- 42
2017-09-12 11:00:00 24 3 Sudoeste 6 Oeste 0 -- -- 38
2017-09-12 10:00:00 21.4 2 Sudoeste 6 Este 0 -- -- 46
2017-09-12 09:00:00 18.6 2 Sudoeste 6 Noroeste 0 -- -- 57
2017-09-12 08:00:00 17.4 2 Norte 5 Nordeste 0 -- -- 56
2017-09-12 07:00:00 17.7 3 Noroeste 5 Oeste 0 -- -- 60
2017-09-12 06:00:00 17.4 3 Norte 5 Nordeste 0 -- -- 57
2017-09-12 05:00:00 18 2 Noroeste 5 Este 0 -- -- 65
2017-09-12 04:00:00 18.3 0 Calma 6 Oeste 0 -- -- 56
2017-09-12 03:00:00 18.1 3 Oeste 6 Noroeste 0 -- -- 66
2017-09-12 02:00:00 18.2 2 Nordeste 8 Este 0 -- -- 61
2017-09-12 01:00:00 19 4 Oeste 6 Sur 0 -- -- 67
2017-09-12 00:00:00 19 3 Norte 6 Nordeste 0 -- -- 65
2017-09-11 23:00:00 19.6 2 Nordeste 10 Sudoeste 0 -- -- 71
2017-09-11 22:00:00 20.8 5 Sudoeste 9 Sudoeste 0 -- -- 75
2017-09-11 21:00:00 22 4 Oeste 9 Sudoeste 0 -- -- 70
2017-09-11 20:00:00 24.4 4 Sudoeste 11 Sudoeste 0 -- -- 64
2017-09-11 19:00:00 25.6 5 Sudoeste -- -- 0 -- -- 60
2017-09-11 18:00:00 26 4 Este 9 Sudeste 0 -- -- 57
2017-09-11 17:00:00 26.3 6 Este 10 Sudeste 0 -- -- 48
2017-09-11 16:00:00 26.3 5 Sudeste 11 Sudeste 0 -- -- 56
2017-09-11 15:00:00 26.5 5 Sudeste 11 Este 0 -- -- 52
2017-09-11 14:00:00 26.9 4 Sur 9 Sudeste 0 -- -- 45
2017-09-11 13:00:00 26.3 6 Este 13 Este 0 -- -- 43
2017-09-11 12:00:00 25.6 4 Este 11 Sur 0 -- -- 42
2017-09-11 11:00:00 23.4 6 Sudoeste -- -- 0 -- -- 52
2017-09-11 10:00:00 21.4 2 Sudoeste 5 Sur 0 -- -- 53
2017-09-11 09:00:00 19.7 3 Noroeste 7 Noroeste 0 -- -- 59
2017-09-11 08:00:00 18.3 3 Oeste 5 Noroeste 0 -- -- 65
2017-09-11 07:00:00 18.9 2 Noroeste 12 Norte 0 -- -- 60
2017-09-11 06:00:00 19.5 3 Norte 7 Noroeste 0 -- -- 50
2017-09-11 05:00:00 19 3 Noroeste 12 Nordeste 0 -- -- 53
2017-09-11 04:00:00 19 6 Nordeste 14 Nordeste 0 -- -- 38
2017-09-11 03:00:00 18.3 4 Nordeste 6 Nordeste 0 -- -- 53
2017-09-11 02:00:00 18.7 3 Oeste 9 Sur 0 -- -- 60
2017-09-11 01:00:00 19.3 3 Noroeste 10 Este 0 -- -- 49
2017-09-11 00:00:00 19.5 6 Nordeste 15 Nordeste 0 -- -- 63
2017-09-10 23:00:00 20.6 4 Oeste 10 Oeste 0 -- -- 65
2017-09-10 22:00:00 20.7 4 Oeste 18 Oeste 0 -- -- 68
2017-09-10 21:00:00 21.7 6 Nordeste 14 Este 0 -- -- 65
2017-09-10 20:00:00 25 6 Nordeste 17 Nordeste 0 -- -- 48
2017-09-10 19:00:00 25.9 7 Nordeste 21 Este 0 -- -- 45
2017-09-10 18:00:00 28.2 8 Nordeste 22 Este 0 -- -- 38
2017-09-10 17:00:00 32.4 6 Este 35 Sudoeste 0 -- -- 18
2017-09-10 16:00:00 31.2 -- -- -- -- 0 -- -- 17
2017-09-10 15:00:00 28.9 7 Este 19 Sudeste 0 -- -- 29
2017-09-10 14:00:00 26.7 6 Sudeste 17 Este 0 -- -- 47
2017-09-10 13:00:00 26.2 10 Este 16 Este 0 -- -- 44
2017-09-10 12:00:00 26.6 4 Sur -- -- 0 -- -- 30
2017-09-10 11:00:00 24.5 10 Sudoeste 20 Sudoeste 0 -- -- 32
2017-09-10 10:00:00 21.5 10 Oeste 14 Oeste 0 -- -- 39
2017-09-10 09:00:00 18 3 Noroeste 9 Sudoeste 0 -- -- 56
2017-09-10 08:00:00 18.1 3 Noroeste 15 Noroeste 0 -- -- 49
2017-09-10 07:00:00 18.3 5 Noroeste 22 Sudoeste 0 -- -- 48
2017-09-10 06:00:00 19.4 12 Oeste -- -- 0 -- -- 46
2017-09-10 05:00:00 20 -- -- -- -- 0 -- -- 48
2017-09-10 04:00:00 20.6 10 Oeste -- -- 0 -- -- 47
2017-09-10 03:00:00 21 -- -- -- -- 0 -- -- 54
2017-09-10 02:00:00 21.6 14 Oeste 33 Sudoeste 0 -- -- 59
2017-09-10 01:00:00 21.8 16 Oeste 35 Oeste 0 -- -- 67
2017-09-10 00:00:00 22.2 16 Oeste 35 Oeste 0 -- -- 64
2017-09-09 23:00:00 22.4 20 Oeste 41 Oeste 0 -- -- 61
2017-09-09 22:00:00 22.8 22 Oeste 44 Sudoeste 0 -- -- 60
2017-09-09 21:00:00 23.6 27 Sudoeste 50 Sudoeste 0 -- -- 54
2017-09-09 20:00:00 25 30 Oeste 60 Oeste 0 -- -- 48
2017-09-09 19:00:00 26.4 31 Oeste 69 Oeste 0 -- -- 42
2017-09-09 18:00:00 27.2 27 Oeste 59 Oeste 0 -- -- 38
2017-09-09 17:00:00 26.6 22 Oeste 54 Oeste 0 -- -- 40
2017-09-09 16:00:00 26.2 25 Oeste 55 Sudoeste 0 -- -- 38
2017-09-09 15:00:00 27.8 22 Oeste 57 Oeste 0 -- -- 33
2017-09-09 14:00:00 28.9 24 Oeste 52 Oeste 0 -- -- 30
2017-09-09 13:00:00 28.1 27 Sudoeste 49 Sudoeste 0 -- -- 30
2017-09-09 12:00:00 27.9 22 Sudoeste 52 Sudoeste 0 -- -- 25
2017-09-09 11:00:00 24.5 23 Oeste 48 Oeste 0 -- -- 38
2017-09-09 10:00:00 22.7 21 Sudoeste 42 Oeste 0 -- -- 52
2017-09-09 09:00:00 21.7 21 Sudoeste 36 Sudoeste 0 -- -- 63
2017-09-09 08:00:00 19.1 19 Oeste 32 Oeste 0 -- -- 78
2017-09-09 07:00:00 19.3 4 Nordeste 7 Nordeste 0 -- -- 84
2017-09-09 06:00:00 19.8 0 Calma 7 Oeste 0 -- -- 84
2017-09-09 05:00:00 20.2 3 Noroeste 7 Oeste 0 -- -- 83
2017-09-09 04:00:00 20 2 Noroeste 4 Nordeste 0 -- -- 82
2017-09-09 03:00:00 20.6 0 Calma 8 Nordeste 0 -- -- 81
2017-09-09 02:00:00 20.7 4 Nordeste 12 Nordeste 0 -- -- 81
2017-09-09 01:00:00 21.6 5 Nordeste 14 Nordeste 0 -- -- 82
2017-09-09 00:00:00 22.4 5 Nordeste 10 Este 0 -- -- 82
2017-09-08 23:00:00 23.1 3 Sudoeste 9 Sur 0 -- -- 80
2017-09-08 22:00:00 23.7 5 Sudoeste 10 Oeste 0 -- -- 77
2017-09-08 21:00:00 24.6 5 Sudoeste 9 Sudoeste 0 -- -- 72
2017-09-08 20:00:00 26.8 6 Sudoeste 12 Sudoeste 0 -- -- 64
2017-09-08 19:00:00 27.6 6 Sudoeste 10 Sudoeste 0 -- -- 63
2017-09-08 18:00:00 27.7 4 Sur 11 Sur 0 -- -- 62
2017-09-08 17:00:00 28.3 5 Sur -- -- 0 -- -- 59
2017-09-08 16:00:00 28.5 7 Sudeste 12 Sudeste 0 -- -- 60
2017-09-08 15:00:00 28.8 8 Sudeste 14 Este 0 -- -- 58
2017-09-08 14:00:00 28.4 8 Este 14 Sudeste 0 -- -- 59
2017-09-08 13:00:00 27.9 7 Este 13 Sudeste 0 -- -- 61
2017-09-08 12:00:00 27.1 7 Sudeste 14 Este 0 -- -- 63
2017-09-08 11:00:00 25.9 9 Este 19 Este 0 -- -- 63
2017-09-08 10:00:00 24.1 11 Este 17 Este 0 -- -- 65
2017-09-08 09:00:00 21.7 8 Nordeste 14 Nordeste 0 -- -- 81
2017-09-08 08:00:00 21.4 3 Norte 8 Nordeste 0 -- -- 83
2017-09-08 07:00:00 21.7 5 Nordeste 13 Nordeste 0 -- -- 82
2017-09-08 06:00:00 21 6 Nordeste 12 Nordeste 0 -- -- 81
2017-09-08 05:00:00 21.1 0 Calma 4 Nordeste 0 -- -- 81
2017-09-08 04:00:00 20.7 4 Nordeste 10 Este 0 -- -- 80
2017-09-08 03:00:00 21.2 5 Este 8 Este 0 -- -- 80
2017-09-08 02:00:00 21.6 0 Calma -- -- 0 -- -- 80
2017-09-08 01:00:00 21.8 4 Nordeste 9 Nordeste 0 -- -- 79
2017-09-08 00:00:00 22.6 5 Nordeste 9 Este 0 -- -- 80
2017-09-07 23:00:00 22.9 4 Nordeste 8 Nordeste 0 -- -- 80
2017-09-07 22:00:00 23.5 3 Este 6 Este 0 -- -- 79
2017-09-07 21:00:00 24.2 4 Este 13 Este 0 -- -- 77
2017-09-07 20:00:00 25.2 9 Este 16 Este 0 -- -- 73
2017-09-07 19:00:00 26.3 10 Este 17 Este 0 -- -- 70
2017-09-07 18:00:00 27 10 Este 22 Este 0 -- -- 67
2017-09-07 17:00:00 27.3 13 Este 23 Este 0 -- -- 66
2017-09-07 16:00:00 27.5 15 Este 24 Este 0 -- -- 65
2017-09-07 15:00:00 27.7 16 Este 24 Este 0 -- -- 64
2017-09-07 14:00:00 27.7 15 Este 23 Este 0 -- -- 62
2017-09-07 13:00:00 27.5 13 Este 18 Este 0 -- -- 60
2017-09-07 12:00:00 26.9 9 Este 18 Este 0 -- -- 60
2017-09-07 11:00:00 25.9 10 Este 17 Este 0 -- -- 58
2017-09-07 10:00:00 23.8 8 Este 11 Este 0 -- -- 57
2017-09-07 09:00:00 21.2 2 Nordeste 5 Norte 0 -- -- 71
2017-09-07 08:00:00 21.3 3 Oeste -- -- 0 -- -- 69
2017-09-07 07:00:00 21.5 0 Calma 9 Nordeste 0 -- -- 52
2017-09-07 06:00:00 21.5 5 Nordeste 13 Este 0 -- -- 48
2017-09-07 05:00:00 22.6 5 Nordeste 13 Este 0 -- -- 57
2017-09-07 04:00:00 23.4 5 Nordeste 16 Nordeste 0 -- -- 40
2017-09-07 03:00:00 23.8 8 Nordeste 17 Nordeste 0 -- -- 40
2017-09-07 02:00:00 23.6 8 Nordeste 15 Nordeste 0 -- -- 41
2017-09-07 01:00:00 22.3 6 Nordeste 12 Nordeste 0 -- -- 54
2017-09-07 00:00:00 22.8 6 Este 13 Nordeste 0 -- -- 59
2017-09-06 23:00:00 22.1 6 Nordeste 13 Nordeste 0 -- -- 57
2017-09-06 22:00:00 23.1 8 Nordeste 16 Este 0 -- -- 76
2017-09-06 21:00:00 23.8 12 Este 18 Este 0 -- -- 76
2017-09-06 20:00:00 25.7 8 Este 14 Este 0 -- -- 68
2017-09-06 19:00:00 27.4 6 Este 14 Este 0 -- -- 63
2017-09-06 18:00:00 28 9 Este 15 Este 0 -- -- 60
2017-09-06 17:00:00 28.2 10 Este 17 Este 0 -- -- 59
2017-09-06 16:00:00 28.9 9 Este 16 Sudeste 0 -- -- 59
2017-09-06 15:00:00 29.1 12 Sudeste 18 Sudeste 0 -- -- 58
2017-09-06 14:00:00 28.5 8 Este 14 Este 0 -- -- 61
2017-09-06 13:00:00 28.3 7 Este 13 Sudeste 0 -- -- 61
2017-09-06 12:00:00 27.3 7 Sudeste 12 Sudeste 0 -- -- 61
2017-09-06 11:00:00 26.1 4 Sudeste 7 Sudeste 0 -- -- 62
2017-09-06 10:00:00 24.9 3 Sur 12 Este 0 -- -- 68
2017-09-06 09:00:00 22.7 5 Nordeste 11 Nordeste 0 -- -- 70
2017-09-06 08:00:00 21.6 4 Nordeste 13 Nordeste 0 -- -- 70
2017-09-06 07:00:00 21.4 4 Nordeste 12 Este 0 -- -- 71
2017-09-06 06:00:00 21.7 6 Nordeste 14 Nordeste 0 -- -- 69
2017-09-06 05:00:00 21.4 4 Nordeste 11 Nordeste 0 -- -- 74
2017-09-06 04:00:00 21.7 6 Nordeste 13 Este 0 -- -- 78
2017-09-06 03:00:00 22.7 5 Nordeste 9 Nordeste 0 -- -- 83
2017-09-06 02:00:00 22.8 3 Nordeste 12 Nordeste 0 -- -- 82
2017-09-06 01:00:00 23.1 8 Este 14 Este 0 -- -- 81
2017-09-06 00:00:00 23.3 6 Nordeste 14 Este 0 -- -- 79
2017-09-05 23:00:00 23.6 5 Nordeste 13 Este 0 -- -- 79
2017-09-05 22:00:00 23.8 6 Nordeste 13 Este 0 -- -- 79
2017-09-05 21:00:00 24.4 6 Nordeste 14 Este 0 -- -- 76
2017-09-05 20:00:00 25.9 9 Este 18 Este 0 -- -- 70
2017-09-05 19:00:00 26.7 12 Este 23 Este 0 -- -- 67
2017-09-05 18:00:00 27.3 17 Este 32 Nordeste 0 -- -- 65
2017-09-05 17:00:00 28.1 18 Este 31 Este 0 -- -- 62
2017-09-05 16:00:00 28.5 19 Este 33 Este 0 -- -- 61
2017-09-05 15:00:00 28.7 17 Nordeste 36 Este 0 -- -- 62
2017-09-05 14:00:00 26.5 23 Este 37 Este 0 -- -- 68
2017-09-05 13:00:00 26.3 26 Este 44 Este 0 -- -- 68
2017-09-05 12:00:00 26.2 30 Este 48 Este 0 -- -- 68
2017-09-05 11:00:00 25.6 26 Este 44 Este 0 -- -- 72
2017-09-05 10:00:00 25.6 19 Nordeste 37 Este 0 -- -- 73
2017-09-05 09:00:00 24.3 12 Nordeste 33 Este 0 -- -- 74
2017-09-05 08:00:00 23.8 11 Nordeste 31 Este 0 -- -- 75
2017-09-05 07:00:00 24.2 14 Nordeste 35 Este 0 -- -- 76
2017-09-05 06:00:00 24.3 22 Nordeste 41 Este 0 -- -- 72
2017-09-05 05:00:00 24.7 14 Nordeste 37 Nordeste 0 -- -- 61
2017-09-05 04:00:00 22.6 9 Nordeste 31 Este 0 -- -- 62
2017-09-05 03:00:00 22.8 2 Noroeste 7 Sudoeste 0 -- -- 51
2017-09-05 02:00:00 23.2 3 Norte 7 Nordeste 0 -- -- 48
2017-09-05 01:00:00 24.3 3 Noroeste 8 Oeste 0 -- -- 45
2017-09-05 00:00:00 24.7 2 Nordeste -- -- 0 -- -- 46
2017-09-04 23:00:00 25.8 3 Nordeste -- -- 0 -- -- 43
2017-09-04 22:00:00 27.7 0 Calma 24 Oeste 0 -- -- 36
2017-09-04 21:00:00 29.2 15 Oeste 37 Oeste 0 -- -- 32
2017-09-04 20:00:00 31.3 18 Oeste 52 Oeste 0 -- -- 32
2017-09-04 19:00:00 32.4 24 Oeste 51 Oeste 0 -- -- 27
2017-09-04 18:00:00 33.2 24 Oeste 49 Oeste 0 -- -- 26
2017-09-04 17:00:00 33.7 27 Oeste 52 Oeste 0 -- -- 25
2017-09-04 16:00:00 33.9 24 Oeste 51 Sudoeste 0 -- -- 27
2017-09-04 15:00:00 33.2 26 Oeste 56 Oeste 0 -- -- 29
2017-09-04 14:00:00 32.6 26 Oeste 49 Oeste 0 -- -- 26
2017-09-04 13:00:00 31.3 28 Oeste 48 Oeste 0 -- -- 30
2017-09-04 12:00:00 30.7 23 Oeste 42 Oeste 0 -- -- 29
2017-09-04 11:00:00 26.4 -- -- -- -- 0 -- -- 52
2017-09-04 10:00:00 23.5 5 Sudoeste 9 Sudoeste 0 -- -- 83
2017-09-04 09:00:00 22.3 2 Oeste 7 Oeste 0 -- -- 85
2017-09-04 08:00:00 21.5 0 Calma 6 Oeste 0 -- -- 83
2017-09-04 07:00:00 21.2 4 Norte 8 Nordeste 0 -- -- 83
2017-09-04 06:00:00 21.5 2 Norte 4 Oeste 0 -- -- 82
2017-09-04 05:00:00 21.6 2 Norte 4 Nordeste 0 -- -- 82
2017-09-04 04:00:00 22.1 0 Calma 12 Nordeste 0 -- -- 80
2017-09-04 03:00:00 22.9 7 Nordeste 14 Nordeste 0 -- -- 81
2017-09-04 02:00:00 22.9 6 Nordeste 14 Nordeste 0 -- -- 81
2017-09-04 01:00:00 22.9 6 Nordeste 11 Nordeste 0 -- -- 79
2017-09-04 00:00:00 23.3 0 Calma 14 Sudoeste 0 -- -- 77
2017-09-03 23:00:00 24.3 7 Sudoeste 12 Sur 0 -- -- 79
2017-09-03 22:00:00 24.6 7 Sudoeste 13 Sudoeste 0 -- -- 75
2017-09-03 21:00:00 25.3 7 Sudoeste 12 Sudoeste 0 -- -- 71
2017-09-03 20:00:00 27.2 6 Sudoeste 10 Sudoeste 0 -- -- 62
2017-09-03 19:00:00 27.9 4 Sudoeste 11 Sur 0 -- -- 61
2017-09-03 18:00:00 28.3 5 Sur 11 Sudeste 0 -- -- 58
2017-09-03 17:00:00 28.8 6 Sudeste 16 Este 0 -- -- 57
2017-09-03 16:00:00 28.8 10 Este 17 Este 0 -- -- 58
2017-09-03 15:00:00 29.2 11 Este 18 Este 0 -- -- 59
2017-09-03 14:00:00 28.8 10 Sudeste 15 Este 0 -- -- 59
2017-09-03 13:00:00 27.5 8 Este 16 Este 0 -- -- 66
2017-09-03 12:00:00 26.4 9 Este 18 Este 0 -- -- 69
2017-09-03 11:00:00 25.8 13 Este 22 Este 0 -- -- 68
2017-09-03 10:00:00 25.1 14 Este 22 Este 0 -- -- 70
2017-09-03 09:00:00 23.6 6 Nordeste 15 Nordeste 0 -- -- 74
2017-09-03 08:00:00 23 7 Nordeste 17 Nordeste 0 -- -- 73
2017-09-03 07:00:00 23.2 8 Nordeste 20 Nordeste 0 -- -- 71
2017-09-03 06:00:00 23.3 9 Nordeste 21 Nordeste 0 -- -- 70
2017-09-03 05:00:00 23.8 10 Nordeste 21 Nordeste 0 -- -- 69
2017-09-03 04:00:00 23.8 10 Nordeste 21 Nordeste 0 -- -- 69
2017-09-03 03:00:00 23.5 9 Nordeste 20 Nordeste 0 -- -- 70
2017-09-03 02:00:00 23.5 8 Nordeste 21 Nordeste 0 -- -- 71
2017-09-03 01:00:00 23.8 10 Nordeste 26 Este 0 -- -- 74
2017-09-03 00:00:00 24 9 Nordeste 30 Este 0 -- -- 75
2017-09-02 23:00:00 24.5 18 Este 30 Este 0 -- -- 76
2017-09-02 22:00:00 24.5 12 Nordeste 29 Este 0 -- -- 71
2017-09-02 21:00:00 24.9 19 Este 35 Este 0 -- -- 71
2017-09-02 20:00:00 25.6 19 Este 35 Este 0 -- -- 70
2017-09-02 19:00:00 26.4 22 Este 36 Este 0 -- -- 68
2017-09-02 18:00:00 27.3 23 Este 35 Este 0 -- -- 65
2017-09-02 17:00:00 27.8 23 Este 35 Este 0 -- -- 63
2017-09-02 16:00:00 27.7 22 Este 39 Este 0 -- -- 64
2017-09-02 15:00:00 27.7 22 Este 42 Este 0 -- -- 63
2017-09-02 14:00:00 27.6 28 Este 42 Este 0 -- -- 64
2017-09-02 13:00:00 27 28 Este 42 Este 0 -- -- 66
2017-09-02 12:00:00 26.8 29 Este 44 Este 0 -- -- 68
2017-09-02 11:00:00 26.2 28 Este 41 Este 0 -- -- 71
2017-09-02 10:00:00 25.5 26 Este 38 Este 0 -- -- 76
2017-09-02 09:00:00 24.8 24 Este 39 Este 0 -- -- 79
2017-09-02 08:00:00 24.7 23 Este 37 Este 0 -- -- 80
2017-09-02 07:00:00 24.8 22 Este 34 Este 0 -- -- 80
2017-09-02 06:00:00 24.9 20 Este 31 Este 0 -- -- 79
2017-09-02 05:00:00 25 19 Este 32 Este 0 -- -- 78
2017-09-02 04:00:00 25.2 17 Este 31 Este 0 -- -- 77
2017-09-02 03:00:00 25 9 Nordeste 20 Este 0 -- -- 71
2017-09-02 02:00:00 25.2 9 Nordeste 21 Nordeste 0 -- -- 69
2017-09-02 01:00:00 25.4 9 Nordeste 23 Nordeste 0 -- -- 68
2017-09-02 00:00:00 25 8 Nordeste 21 Nordeste 0 -- -- 66
2017-09-01 23:00:00 25.1 8 Nordeste 18 Este 0 -- -- 65
2017-09-01 22:00:00 25.3 9 Nordeste 22 Nordeste 0 -- -- 68
2017-09-01 21:00:00 25.6 10 Nordeste 24 Nordeste 0 -- -- 62
2017-09-01 20:00:00 26.9 13 Nordeste 26 Este 0 -- -- 57
2017-09-01 19:00:00 27.6 15 Este 26 Nordeste 0 -- -- 57
2017-09-01 18:00:00 28.4 15 Este 25 Este 0 -- -- 56
2017-09-01 17:00:00 28.7 17 Este 24 Este 0 -- -- 56
2017-09-01 16:00:00 29 13 Este 24 Este 0 -- -- 56
2017-09-01 15:00:00 29.1 14 Este 28 Sudeste 0 -- -- 55
2017-09-01 14:00:00 28.3 17 Este 30 Este 0 -- -- 57
2017-09-01 13:00:00 28.1 16 Este 29 Este 0 -- -- 56
2017-09-01 12:00:00 27.7 15 Este 28 Este 0 -- -- 56
2017-09-01 11:00:00 27.1 18 Este 28 Este 0 -- -- 58
2017-09-01 10:00:00 26.2 16 Nordeste 27 Este 0 -- -- 57
2017-09-01 09:00:00 24.3 8 Nordeste 23 Nordeste 0 -- -- 62
2017-09-01 08:00:00 23.6 10 Nordeste 19 Nordeste 0 -- -- 63
2017-09-01 07:00:00 23.3 8 Nordeste 15 Nordeste 0 -- -- 67
2017-09-01 06:00:00 23.4 6 Nordeste 17 Nordeste 0 -- -- 66
2017-09-01 05:00:00 23.1 8 Nordeste 16 Nordeste 0 -- -- 68
2017-09-01 04:00:00 23.1 5 Nordeste 10 Este 0 -- -- 72
2017-09-01 03:00:00 23.7 5 Este 14 Nordeste 0 -- -- 69
2017-09-01 02:00:00 24.8 7 Nordeste 17 Nordeste 0 -- -- 62
2017-09-01 01:00:00 25.1 10 Nordeste 18 Nordeste 0 -- -- 60
2017-09-01 00:00:00 24.4 7 Nordeste 18 Nordeste 0 -- -- 56
2017-08-31 23:00:00 24.4 8 Nordeste 14 Nordeste 0 -- -- 58
2017-08-31 22:00:00 24.5 6 Nordeste 15 Este 0 -- -- 59
2017-08-31 21:00:00 25.4 6 Nordeste 14 Este 0 -- -- 59
2017-08-31 20:00:00 27.5 9 Este 14 Este 0 -- -- 52
2017-08-31 19:00:00 28.1 8 Este 13 Este 0 -- -- 48
2017-08-31 18:00:00 28.8 5 Este 11 Sudeste 0 -- -- 45
2017-08-31 17:00:00 28.7 4 Sudeste 11 Sudeste 0 -- -- 50
2017-08-31 16:00:00 28.8 6 Sur 12 Sur 0 -- -- 48
2017-08-31 15:00:00 29.6 5 Sur 11 Sudoeste 0 -- -- 49
2017-08-31 14:00:00 29.2 6 Sur 11 Sudoeste 0 -- -- 49
2017-08-31 13:00:00 28.2 5 Sudoeste 12 Sur 0 -- -- 52
2017-08-31 12:00:00 26.8 4 Sur 8 Sur 0 -- -- 56
2017-08-31 11:00:00 24.9 5 Sudoeste 9 Sudoeste 0 -- -- 62
2017-08-31 10:00:00 23.4 4 Sudoeste 7 Sur 0 -- -- 62
2017-08-31 09:00:00 21.4 3 Oeste 5 Oeste 0 -- -- 68
2017-08-31 08:00:00 20.9 4 Oeste 6 Noroeste 0 -- -- 72
2017-08-31 07:00:00 21 0 Calma 6 Oeste 0 -- -- 75
2017-08-31 06:00:00 20.5 4 Oeste 6 Oeste 0 -- -- 77
2017-08-31 05:00:00 20 2 Noroeste 4 Oeste 0 -- -- 76
2017-08-31 04:00:00 19.7 2 Noroeste 6 Nordeste 0 -- -- 77
2017-08-31 03:00:00 20 3 Nordeste 6 Nordeste 0 -- -- 78
2017-08-31 02:00:00 20.3 3 Norte 5 Norte 0 -- -- 76
2017-08-31 01:00:00 21.2 2 Noroeste 11 Oeste 0 -- -- 75
2017-08-31 00:00:00 21.2 6 Oeste 10 Sudoeste 0 -- -- 77
2017-08-30 23:00:00 21.2 3 Nordeste 11 Este 0 -- -- 75
2017-08-30 22:00:00 21.7 6 Nordeste 21 Este 0 -- -- 75
2017-08-30 21:00:00 22.1 13 Este 22 Este 0 -- -- 75
2017-08-30 20:00:00 22.5 13 Este 29 Este 0 -- -- 73
2017-08-30 19:00:00 23.2 17 Este 32 Este 0 -- -- 72
2017-08-30 18:00:00 24.3 19 Este 32 Este 0 -- -- 68
2017-08-30 17:00:00 26.1 18 Este 34 Este 0 -- -- 60
2017-08-30 16:00:00 28.4 9 Sudeste 18 Sudeste 0 -- -- 49
2017-08-30 15:00:00 28.4 8 Sur 16 Sudeste 0 -- -- 50
2017-08-30 14:00:00 27.7 9 Sudeste 20 Sudeste 0 -- -- 54
2017-08-30 13:00:00 27 7 Sur 15 Sudeste 0 -- -- 51
2017-08-30 12:00:00 25.6 8 Sur 14 Sur 0 -- -- 57
2017-08-30 11:00:00 25 5 Sudeste 15 Nordeste 0 -- -- 63
2017-08-30 10:00:00 22.6 8 Este 15 Este 0 -- -- 72
2017-08-30 09:00:00 20.9 6 Nordeste 16 Nordeste 0 -- -- 79
2017-08-30 08:00:00 21.3 11 Este 20 Este 0 -- -- 79
2017-08-30 07:00:00 20.8 13 Sudeste 25 Sudeste 0.2 -- -- 81
2017-08-30 06:00:00 21.4 3 Oeste 12 Nordeste 1.2 -- -- 74
2017-08-30 05:00:00 21.7 4 Nordeste 14 Nordeste 0 -- -- 68
2017-08-30 04:00:00 21.6 5 Nordeste 12 Nordeste 0 -- -- 67
2017-08-30 03:00:00 21.1 4 Nordeste 14 Nordeste 0 -- -- 68
2017-08-30 02:00:00 20.6 2 Este 8 Oeste 0 -- -- 66
2017-08-30 01:00:00 21.4 6 Oeste 13 Oeste 0 -- -- 65
2017-08-30 00:00:00 21.2 2 Nordeste 9 Noroeste 0 -- -- 65
2017-08-29 23:00:00 22.4 4 Oeste 14 Oeste 0 -- -- 58
2017-08-29 22:00:00 23.6 6 Oeste 18 Sudoeste 0 -- -- 52
2017-08-29 21:00:00 25 10 Sudoeste 25 Oeste 0 -- -- 47
2017-08-29 20:00:00 27.1 13 Sudoeste 26 Oeste 0 -- -- 40
2017-08-29 19:00:00 27.5 14 Sudoeste 25 Oeste 0 -- -- 44
2017-08-29 18:00:00 26.4 18 Sudoeste 27 Sudoeste 0 -- -- 55
2017-08-29 17:00:00 27.6 18 Sudoeste 27 Sudoeste 0 -- -- 50
2017-08-29 16:00:00 28.5 19 Sudoeste 28 Sudoeste 0 -- -- 50
2017-08-29 15:00:00 26.9 16 Sudoeste 27 Sudoeste 0 -- -- 43
2017-08-29 14:00:00 27 15 Sudoeste 28 Oeste 0 -- -- 45
2017-08-29 13:00:00 24.3 12 Sudoeste 28 Sudoeste 0 -- -- 56
2017-08-29 12:00:00 20.8 10 Oeste 28 Oeste 0 -- -- 67
2017-08-29 11:00:00 21.2 12 Sudoeste 22 Oeste 0 -- -- 70
2017-08-29 10:00:00 20.1 3 Oeste 16 Oeste 0.2 -- -- 76
2017-08-29 09:00:00 20.6 8 Oeste 14 Oeste 0.2 -- -- 65
2017-08-29 08:00:00 20 7 Oeste 12 Oeste 0 -- -- 62
2017-08-29 07:00:00 19.6 6 Oeste 17 Sudoeste 0 -- -- 63
2017-08-29 06:00:00 19.7 8 Oeste 20 Sudoeste 0 -- -- 67
2017-08-29 05:00:00 19.5 3 Sudoeste 18 Oeste 0 -- -- 66
2017-08-29 04:00:00 20.4 13 Oeste 26 Oeste 0 -- -- 67
2017-08-29 03:00:00 21.1 13 Sudoeste 27 Sudoeste 0 -- -- 68
2017-08-29 02:00:00 21.4 14 Oeste 25 Sudoeste 0 -- -- 66
2017-08-29 01:00:00 22 15 Oeste 28 Oeste 0 -- -- 65
2017-08-29 00:00:00 22.4 11 Oeste 26 Oeste 0 -- -- 62
2017-08-28 23:00:00 23 12 Oeste 24 Oeste 0 -- -- 60
2017-08-28 22:00:00 23.9 11 Oeste 26 Oeste 0 -- -- 54
2017-08-28 21:00:00 25.6 13 Oeste 28 Oeste 0 -- -- 46
2017-08-28 20:00:00 28.3 12 Oeste 25 Sudoeste 0 -- -- 38
2017-08-28 19:00:00 27.8 11 Sudoeste 25 Sur 0 -- -- 54
2017-08-28 18:00:00 29.2 15 Sudoeste 27 Sudoeste 0 -- -- 50
2017-08-28 17:00:00 27.3 8 Sur 20 Sur 0 -- -- 61
2017-08-28 16:00:00 27.8 9 Sudoeste 21 Oeste 0 -- -- 46
2017-08-28 15:00:00 27.3 12 Oeste -- -- 0 -- -- 47
2017-08-28 14:00:00 25.5 7 Sudoeste -- -- 0 -- -- 58
2017-08-28 13:00:00 23.5 7 Sudoeste 19 Sudoeste 1.4 -- -- 70
2017-08-28 12:00:00 24.6 9 Sudoeste 18 Sudoeste 0.4 -- -- 65
2017-08-28 11:00:00 25.7 9 Sudoeste 21 Oeste 0.2 -- -- 48
2017-08-28 10:00:00 24.7 8 Oeste 17 Sudoeste 0 -- -- 55
2017-08-28 09:00:00 24.1 9 Sudoeste -- -- 0 -- -- 71
2017-08-28 08:00:00 24.1 3 Noroeste 13 Oeste 0 -- -- 74
2017-08-28 07:00:00 23.8 7 Oeste 17 Sudoeste 0 -- -- 77
2017-08-28 06:00:00 24 7 Oeste 15 Oeste 0 -- -- 81
2017-08-28 05:00:00 24.2 9 Sudoeste -- -- 0 -- -- 82
2017-08-28 04:00:00 24.1 2 Noroeste 25 Este 0.2 -- -- 81
2017-08-28 03:00:00 24.8 13 Nordeste 23 Este 0.8 -- -- 79
2017-08-28 02:00:00 25.5 9 Nordeste 22 Este 0 -- -- 75
2017-08-28 01:00:00 25.5 10 Este 23 Nordeste 0 -- -- 76
2017-08-28 00:00:00 25.2 9 Nordeste 25 Este 0 -- -- 78
2017-08-27 23:00:00 25.2 9 Nordeste 23 Este 0 -- -- 79
2017-08-27 22:00:00 25.3 13 Este 22 Este 0 -- -- 80
2017-08-27 21:00:00 25.5 15 Este 22 Este 0 -- -- 78
2017-08-27 20:00:00 26.4 13 Este 22 Este 0 -- -- 73
2017-08-27 19:00:00 26.8 12 Nordeste 26 Nordeste 0 -- -- 72
2017-08-27 18:00:00 28 11 Nordeste 26 Nordeste 0 -- -- 68
2017-08-27 17:00:00 28.4 13 Este 33 Este 0 -- -- 66
2017-08-27 16:00:00 28.9 16 Este 32 Este 0 -- -- 66
2017-08-27 15:00:00 28.9 17 Este 32 Este 0 -- -- 64
2017-08-27 14:00:00 27 18 Este 28 Este 1.6 -- -- 78
2017-08-27 13:00:00 27.6 8 Este 20 Este 0 -- -- 69
2017-08-27 12:00:00 27 5 Sudeste 19 Nordeste 0 -- -- 71
2017-08-27 11:00:00 24.5 7 Nordeste 26 Nordeste 0.2 -- -- 75
2017-08-27 10:00:00 24.5 11 Nordeste -- -- 1 -- -- 80
2017-08-27 09:00:00 25.3 5 Noroeste 21 Nordeste 0 -- -- 73
2017-08-27 08:00:00 25.5 8 Nordeste 25 Este 0 -- -- 70
2017-08-27 07:00:00 25.5 10 Nordeste 31 Nordeste 0 -- -- 66
2017-08-27 06:00:00 25.8 10 Nordeste 27 Nordeste 0 -- -- 62
2017-08-27 05:00:00 25.9 10 Nordeste 30 Nordeste 0 -- -- 60
2017-08-27 04:00:00 24.7 7 Nordeste 15 Nordeste 0 -- -- 72
2017-08-27 03:00:00 25.1 6 Sudeste 17 Este 0 -- -- 77
2017-08-27 02:00:00 24.9 12 Nordeste 22 Este 0 -- -- 75
2017-08-27 01:00:00 25.4 10 Este 24 Este 0 -- -- 74
2017-08-27 00:00:00 24.6 9 Nordeste 25 Este 0 -- -- 77
2017-08-26 23:00:00 25 19 Este 32 Este 0 -- -- 80
2017-08-26 22:00:00 24.9 12 Este 21 Este 0 -- -- 79
2017-08-26 21:00:00 25.3 9 Este 19 Este 0 -- -- 78
2017-08-26 20:00:00 25.8 12 Este 20 Este 0 -- -- 75
2017-08-26 19:00:00 26.5 9 Este 19 Este 0 -- -- 72
2017-08-26 18:00:00 27.7 13 Este 21 Este 0 -- -- 66
2017-08-26 17:00:00 28.7 12 Este 22 Este 0 -- -- 63
2017-08-26 16:00:00 28.7 10 Este 24 Este 0 -- -- 63
2017-08-26 15:00:00 29.2 10 Este 20 Este 0 -- -- 62
2017-08-26 14:00:00 28.9 9 Este 19 Este 0 -- -- 61
2017-08-26 13:00:00 28.3 11 Este 25 Este 0 -- -- 60
2017-08-26 12:00:00 27.7 17 Este 27 Este 0 -- -- 67
2017-08-26 11:00:00 26.8 18 Este 27 Este 0 -- -- 70
2017-08-26 10:00:00 26.1 13 Este 24 Este 0 -- -- 72
2017-08-26 09:00:00 23.2 5 Nordeste 10 Nordeste 0 -- -- 67
2017-08-26 08:00:00 23.5 0 Calma 8 Sudoeste 0 -- -- 70
2017-08-26 07:00:00 24.7 5 Este 16 Norte 0 -- -- 54
2017-08-26 06:00:00 25 9 Nordeste 19 Nordeste 0 -- -- 48
2017-08-26 05:00:00 23.6 8 Nordeste 22 Este 0 -- -- 61
2017-08-26 04:00:00 24.2 8 Nordeste 19 Nordeste 0 -- -- 72
2017-08-26 03:00:00 24.2 7 Nordeste 19 Este 0 -- -- 68
2017-08-26 02:00:00 24.6 7 Nordeste 16 Nordeste 0 -- -- 65
2017-08-26 01:00:00 24.6 7 Nordeste 17 Este 0 -- -- 65
2017-08-26 00:00:00 23.4 5 Nordeste 11 Este 0 -- -- 72
2017-08-25 23:00:00 24.4 4 Nordeste 12 Este 0 -- -- 78
2017-08-25 22:00:00 24.8 7 Este 12 Nordeste 0 -- -- 76
2017-08-25 21:00:00 25.3 3 Sur 10 Este 0 -- -- 73
2017-08-25 20:00:00 26.3 4 Sudeste 9 Sudeste 0 -- -- 69
2017-08-25 19:00:00 27 5 Sudeste 15 Este 0 -- -- 67
2017-08-25 18:00:00 28.3 4 Sudeste 9 Sudoeste 0 -- -- 63
2017-08-25 17:00:00 27.5 6 Este 17 Este 0 -- -- 65
2017-08-25 16:00:00 27.2 13 Este 23 Este 0 -- -- 67
2017-08-25 15:00:00 28.8 11 Este 17 Este 0 -- -- 59
2017-08-25 14:00:00 28.7 5 Sudeste 23 Este 0 -- -- 59
2017-08-25 13:00:00 26.9 17 Este 28 Este 0 -- -- 66
2017-08-25 12:00:00 26.9 11 Este 21 Este 0 -- -- 65
2017-08-25 11:00:00 26.6 10 Este 18 Este 0 -- -- 67
2017-08-25 10:00:00 24.4 3 Sudoeste 9 Oeste 0 -- -- 74
2017-08-25 09:00:00 23 3 Oeste 7 Nordeste 0 -- -- 79
2017-08-25 08:00:00 22.6 3 Norte 10 Oeste 0 -- -- 78
2017-08-25 07:00:00 23 5 Oeste 9 Noroeste 0 -- -- 78
2017-08-25 06:00:00 22.6 7 Oeste 12 Oeste 0 -- -- 77
2017-08-25 05:00:00 22.3 5 Sudoeste 13 Oeste 0 -- -- 77
2017-08-25 04:00:00 22.3 3 Noroeste 16 Este 0 -- -- 76
2017-08-25 03:00:00 22.6 8 Nordeste 18 Nordeste 0 -- -- 78
2017-08-25 02:00:00 21.8 9 Nordeste 15 Este 0 -- -- 77
2017-08-25 01:00:00 22.8 8 Este 11 Este 0 -- -- 80
2017-08-25 00:00:00 23.1 2 Nordeste 8 Este 0 -- -- 79
2017-08-24 23:00:00 23.6 4 Este 9 Sudeste 0 -- -- 77
2017-08-24 22:00:00 24.2 6 Sudeste 10 Sudeste 0 -- -- 75
2017-08-24 21:00:00 25 5 Este 12 Este 0 -- -- 71
2017-08-24 20:00:00 26.3 8 Este 16 Este 0 -- -- 66
2017-08-24 19:00:00 27.8 10 Este 17 Este 0 -- -- 61
2017-08-24 18:00:00 28.2 9 Este 22 Este 0 -- -- 60
2017-08-24 17:00:00 28.5 14 Este 23 Sudeste 0 -- -- 58
2017-08-24 16:00:00 29 12 Este 23 Este 0 -- -- 58
2017-08-24 15:00:00 29 10 Este 19 Este 0 -- -- 58
2017-08-24 14:00:00 28.9 11 Sudeste 20 Este 0 -- -- 60
2017-08-24 13:00:00 28.2 10 Este 19 Este 0 -- -- 61
2017-08-24 12:00:00 27.3 12 Este 21 Sudeste 0 -- -- 65
2017-08-24 11:00:00 25.7 10 Este 18 Este 0 -- -- 71
2017-08-24 10:00:00 24.4 7 Este 13 Este 0 -- -- 77
2017-08-24 09:00:00 22.5 4 Nordeste 8 Nordeste 0 -- -- 79
2017-08-24 08:00:00 21.6 3 Noroeste 6 Oeste 0 -- -- 77
2017-08-24 07:00:00 21.3 3 Oeste 6 Sudoeste 0 -- -- 72
2017-08-24 06:00:00 21.2 3 Oeste 6 Nordeste 0 -- -- 66
2017-08-24 05:00:00 21.7 2 Noroeste 4 Nordeste 0 -- -- 66
2017-08-24 04:00:00 22.9 2 Norte 13 Nordeste 0 -- -- 60
2017-08-24 03:00:00 23.7 7 Nordeste 17 Nordeste 0 -- -- 57
2017-08-24 02:00:00 23.5 8 Nordeste 15 Nordeste 0 -- -- 63
2017-08-24 01:00:00 23.2 5 Nordeste 12 Este 0 -- -- 66
2017-08-24 00:00:00 22.9 5 Nordeste 8 Nordeste 0 -- -- 72
2017-08-23 23:00:00 23.6 3 Nordeste 11 Este 0 -- -- 74
2017-08-23 22:00:00 24.4 6 Este 12 Nordeste 0 -- -- 72
2017-08-23 21:00:00 25.8 4 Este 9 Este 0 -- -- 67
2017-08-23 20:00:00 28 5 Sudeste 9 Sudeste 0 -- -- 60
2017-08-23 19:00:00 28.8 5 Sudeste 14 Sudeste 0 -- -- 57
2017-08-23 18:00:00 29.1 8 Sudeste 14 Sudeste 0 -- -- 57
2017-08-23 17:00:00 29.8 8 Sudeste 17 Este 0 -- -- 54
2017-08-23 16:00:00 30.3 9 Sudeste 17 Sudeste 0 -- -- 53
2017-08-23 15:00:00 29.9 11 Este 21 Este 0 -- -- 56
2017-08-23 14:00:00 29.5 11 Este 19 Este 0 -- -- 56
2017-08-23 13:00:00 29.4 8 Este 14 Este 0 -- -- 54
2017-08-23 12:00:00 27.9 9 Sudeste 13 Sudeste 0 -- -- 58
2017-08-23 11:00:00 25.9 4 Sur 8 Sur 0 -- -- 70
2017-08-23 10:00:00 23.9 4 Sur 8 Sur 0 -- -- 75
2017-08-23 09:00:00 22.3 4 Oeste 11 Oeste 0 -- -- 77
2017-08-23 08:00:00 20.3 4 Oeste 6 Oeste 0 -- -- 76
2017-08-23 07:00:00 20.7 0 Calma 4 Noroeste 0 -- -- 76
2017-08-23 06:00:00 21.4 3 Oeste 10 Oeste 0 -- -- 73
2017-08-23 05:00:00 21.5 4 Oeste 7 Sudoeste 0 -- -- 71
2017-08-23 04:00:00 20.9 2 Norte 6 Noroeste 0 -- -- 69
2017-08-23 03:00:00 21.8 2 Sudoeste 5 Sudoeste 0 -- -- 71
2017-08-23 02:00:00 22 3 Nordeste 13 Este 0 -- -- 57
2017-08-23 01:00:00 22.9 6 Nordeste 13 Este 0 -- -- 68
2017-08-23 00:00:00 23.2 4 Nordeste 11 Nordeste 0 -- -- 73
2017-08-22 23:00:00 23.6 5 Nordeste 14 Nordeste 0 -- -- 71
2017-08-22 22:00:00 23.9 -- -- -- -- -- -- -- 70
2017-08-22 21:00:00 -- -- -- -- -- -- -- -- --
2017-08-22 20:00:00 26.6 11 Este 19 Este 0 -- -- 62
2017-08-22 19:00:00 28 10 Este 18 Este 0 -- -- 58
2017-08-22 18:00:00 28.4 10 Este 19 Este 0 -- -- 56
2017-08-22 17:00:00 29 10 Este 21 Este 0 -- -- 55
2017-08-22 16:00:00 29.2 13 Este 24 Este 0 -- -- 53
2017-08-22 15:00:00 29 18 Este 26 Este 0 -- -- 55
2017-08-22 14:00:00 28.3 15 Este 24 Este 0 -- -- 60
2017-08-22 13:00:00 28.2 10 Este 22 Este 0 -- -- 63
2017-08-22 12:00:00 27.2 13 Este 26 Este 0 -- -- 65
2017-08-22 11:00:00 26.7 13 Este 23 Este 0 -- -- 61
2017-08-22 10:00:00 26.2 13 Este 21 Este 0 -- -- 58
2017-08-22 09:00:00 24.5 8 Nordeste 17 Nordeste 0 -- -- 52
2017-08-22 08:00:00 23.6 8 Nordeste 15 Nordeste 0 -- -- 48
2017-08-22 07:00:00 23.7 8 Nordeste 20 Norte 0 -- -- 48
2017-08-22 06:00:00 24.4 9 Nordeste 23 Nordeste 0 -- -- 40
2017-08-22 05:00:00 24.5 12 Nordeste 29 Nordeste 0 -- -- 34
2017-08-22 04:00:00 24.5 12 Nordeste 24 Norte 0 -- -- 35
2017-08-22 03:00:00 23.9 9 Nordeste 23 Nordeste 0 -- -- 50
2017-08-22 02:00:00 24.1 10 Nordeste 23 Nordeste 0 -- -- 62
2017-08-22 01:00:00 24.2 10 Nordeste 22 Nordeste 0 -- -- 67
2017-08-22 00:00:00 24.3 10 Nordeste 25 Este 0 -- -- 71